Time;durP1;ratioP1;P1;durP2;ratioP2;P2;SDS_P1;SDS_P2;PMS_P1;PMS_P2;Temp;Humidity;BMP_temperature;BMP_pressure;BME280_temperature;BME280_humidity;BME280_pressure;Samples;Min_cycle;Max_cycle;Signal;HPM_P1;HPM_P2
2022/06/18 07:26:37;;;;;;;6.05;2.85;;;25.80;99.90;;;;;;5058249;28;20740;-86
2022/06/18 07:29:03;;;;;;;5.22;2.72;;;25.50;99.90;;;;;;5048041;28;20029;-89
2022/06/18 07:31:31;;;;;;;6.22;2.92;;;25.50;99.90;;;;;;5049189;28;20048;-88
2022/06/18 07:33:59;;;;;;;4.00;2.80;;;25.70;99.90;;;;;;5045933;28;20025;-90
2022/06/18 07:36:26;;;;;;;4.60;2.60;;;25.80;99.90;;;;;;5048903;28;20076;-90
2022/06/18 07:38:51;;;;;;;2.67;2.47;;;26.00;99.90;;;;;;5047804;28;20028;-89
2022/06/18 07:41:19;;;;;;;7.03;2.60;;;26.10;99.90;;;;;;5047788;28;20021;-84
2022/06/18 07:43:51;;;;;;;6.07;2.60;;;26.10;99.90;;;;;;5043539;28;20075;-85
2022/06/18 07:46:17;;;;;;;4.53;2.22;;;26.20;99.90;;;;;;5046092;28;20025;-86
2022/06/18 07:48:43;;;;;;;4.95;2.65;;;26.20;99.90;;;;;;5047169;28;20146;-85
2022/06/18 07:51:10;;;;;;;4.80;2.67;;;26.30;99.90;;;;;;5045374;28;20025;-85
2022/06/18 07:53:36;;;;;;;6.05;3.22;;;26.30;99.90;;;;;;5045507;28;20099;-86
2022/06/18 07:56:03;;;;;;;5.00;2.90;;;26.40;99.90;;;;;;5046150;28;20472;-85
2022/06/18 07:58:29;;;;;;;5.05;2.63;;;26.50;99.90;;;;;;5044824;28;20032;-86
2022/06/18 08:00:56;;;;;;;5.03;2.85;;;26.50;99.90;;;;;;5040997;28;20543;-85
2022/06/18 08:03:22;;;;;;;3.38;2.47;;;26.20;99.90;;;;;;5028440;28;20013;-84
2022/06/18 08:05:49;;;;;;;5.10;2.50;;;26.10;99.90;;;;;;5045799;28;20040;-84
2022/06/18 08:08:15;;;;;;;3.53;2.50;;;26.00;99.90;;;;;;5045464;28;20036;-85
2022/06/18 08:10:45;;;;;;;3.63;2.92;;;25.90;99.90;;;;;;5045609;28;20132;-84
2022/06/18 08:13:11;;;;;;;5.05;2.90;;;26.30;99.90;;;;;;5045745;28;20025;-85
2022/06/18 08:15:37;;;;;;;3.75;2.78;;;26.40;99.90;;;;;;5045563;28;20036;-85
2022/06/18 08:18:03;;;;;;;4.30;2.70;;;26.70;99.90;;;;;;5045973;28;20021;-85
2022/06/18 08:20:30;;;;;;;4.93;3.05;;;26.50;99.90;;;;;;5046119;28;20033;-85
2022/06/18 08:22:57;;;;;;;9.48;3.38;;;26.20;99.90;;;;;;5046008;28;20082;-85
2022/06/18 08:25:26;;;;;;;4.45;3.15;;;25.70;99.90;;;;;;5045316;28;20053;-85
2022/06/18 08:27:53;;;;;;;4.15;3.20;;;25.50;99.90;;;;;;5047640;28;20037;-85
2022/06/18 08:30:19;;;;;;;4.13;3.15;;;25.40;99.90;;;;;;5046681;28;20017;-85
2022/06/18 08:32:45;;;;;;;8.88;3.28;;;25.50;99.90;;;;;;5046384;28;20365;-85
2022/06/18 08:35:11;;;;;;;5.18;3.22;;;25.70;99.90;;;;;;5046150;28;20053;-85
2022/06/18 08:37:38;;;;;;;5.47;2.72;;;25.70;99.90;;;;;;5035630;28;20032;-84
2022/06/18 08:40:35;;;;;;;4.28;3.10;;;25.70;99.90;;;;;;5032441;28;20511;-85
2022/06/18 08:43:16;;;;;;;3.40;2.60;;;25.70;99.90;;;;;;5028579;28;20128;-85
2022/06/18 08:46:08;;;;;;;10.73;3.40;;;25.70;99.90;;;;;;5033577;28;20506;-84
2022/06/18 08:48:45;;;;;;;4.13;2.90;;;25.70;99.90;;;;;;5032794;28;20017;-84
2022/06/18 08:51:33;;;;;;;4.15;3.08;;;25.70;99.90;;;;;;5032484;28;20058;-85
2022/06/18 08:54:22;;;;;;;8.25;3.00;;;25.80;99.90;;;;;;5031079;28;20020;-85
2022/06/18 08:56:50;;;;;;;3.97;2.80;;;25.80;99.90;;;;;;5027701;28;20048;-84
2022/06/18 08:59:34;;;;;;;4.50;2.70;;;25.70;99.90;;;;;;5031229;28;20086;-84
2022/06/18 09:02:25;;;;;;;5.85;2.65;;;25.70;99.90;;;;;;5028184;28;20037;-83
2022/06/18 09:05:20;;;;;;;7.57;2.97;;;25.80;99.90;;;;;;5031723;28;20025;-84
2022/06/18 09:08:15;;;;;;;4.10;2.80;;;25.90;99.90;;;;;;5030649;28;20129;-85
2022/06/18 09:10:59;;;;;;;8.85;2.78;;;26.20;99.90;;;;;;5032814;28;20029;-84
2022/06/18 09:13:43;;;;;;;5.50;2.75;;;26.30;99.90;;;;;;5029050;28;20037;-84
2022/06/18 09:16:15;;;;;;;7.00;3.60;;;26.30;99.90;;;;;;5029647;28;20029;-86
2022/06/18 09:18:49;;;;;;;3.00;2.67;;;26.40;99.90;;;;;;5030436;28;20440;-85
2022/06/18 09:21:21;;;;;;;9.00;2.97;;;26.50;99.90;;;;;;5030444;28;20532;-84
2022/06/18 09:23:55;;;;;;;4.18;3.33;;;26.40;99.90;;;;;;5030635;28;20484;-85
2022/06/18 09:26:39;;;;;;;4.68;3.05;;;26.40;99.90;;;;;;5021125;28;20051;-85
2022/06/18 09:29:13;;;;;;;8.20;3.08;;;26.70;99.90;;;;;;5030568;28;20044;-86
2022/06/18 09:31:48;;;;;;;5.25;3.10;;;26.60;99.90;;;;;;5031087;28;20032;-85
2022/06/18 09:34:37;;;;;;;6.03;3.05;;;26.80;99.90;;;;;;5031954;28;20026;-86
2022/06/18 09:37:10;;;;;;;4.18;2.85;;;26.90;99.90;;;;;;5042478;28;20030;-88
2022/06/18 09:39:46;;;;;;;3.25;2.65;;;26.90;99.90;;;;;;5026135;28;20024;-88
2022/06/18 09:42:19;;;;;;;7.80;3.17;;;26.90;99.90;;;;;;5034314;28;20032;-89
2022/06/18 09:44:54;;;;;;;4.38;2.80;;;26.80;99.90;;;;;;5034102;28;20608;-90
2022/06/18 09:47:46;;;;;;;8.00;3.15;;;26.80;99.90;;;;;;5035653;28;20083;-87
2022/06/18 09:50:27;;;;;;;4.50;2.70;;;26.90;99.90;;;;;;5030036;28;20428;-91
2022/06/18 09:53:05;;;;;;;2.90;2.60;;;26.90;99.90;;;;;;5034039;28;20264;-91
2022/06/18 09:55:40;;;;;;;4.72;2.80;;;26.90;99.90;;;;;;5032967;28;20021;-93
2022/06/18 09:58:11;;;;;;;3.33;2.80;;;27.10;99.90;;;;;;5033381;28;20021;-93
2022/06/18 10:00:38;;;;;;;7.05;3.35;;;27.10;99.90;;;;;;5034537;28;20396;-93
2022/06/18 10:06:52;;;;;;;4.57;3.15;;;27.20;99.90;;;;;;5032403;28;20025;-92
2022/06/18 10:09:07;;;;;;;6.05;3.38;;;26.80;99.90;;;;;;5051378;28;20087;-89
2022/06/18 10:11:33;;;;;;;4.03;3.40;;;26.70;99.90;;;;;;5032339;28;20037;-91
2022/06/18 10:14:14;;;;;;;6.60;3.30;;;26.70;99.90;;;;;;5033879;28;20056;-92
2022/06/18 10:17:04;;;;;;;9.13;3.58;;;26.90;99.90;;;;;;5032956;28;20468;-92
2022/06/18 10:19:39;;;;;;;9.25;3.15;;;26.80;99.90;;;;;;5033079;28;20037;-91
2022/06/18 10:22:22;;;;;;;4.95;3.20;;;26.80;99.90;;;;;;5032753;28;20024;-88
2022/06/18 10:25:18;;;;;;;7.47;3.50;;;26.80;99.90;;;;;;5032671;28;20050;-92
2022/06/18 10:27:53;;;;;;;6.53;3.00;;;26.70;99.90;;;;;;5032609;28;20036;-92
2022/06/18 10:30:28;;;;;;;4.25;2.78;;;26.80;99.90;;;;;;5028004;28;20116;-89
2022/06/18 10:33:20;;;;;;;4.50;2.67;;;26.70;99.90;;;;;;5014117;28;20033;-88
2022/06/18 10:36:16;;;;;;;5.72;2.60;;;26.80;99.90;;;;;;5032738;28;20102;-87
2022/06/18 10:38:48;;;;;;;3.70;3.08;;;26.70;99.90;;;;;;5033366;28;20025;-92
2022/06/18 10:41:14;;;;;;;6.28;3.08;;;26.60;99.90;;;;;;5033120;28;20096;-89
2022/06/18 10:43:45;;;;;;;5.97;2.90;;;26.80;99.90;;;;;;5025286;28;20033;-87
2022/06/18 10:46:17;;;;;;;4.20;2.75;;;26.80;99.90;;;;;;5031938;28;20378;-90
2022/06/18 10:48:47;;;;;;;6.75;2.90;;;27.00;99.90;;;;;;5030749;28;20106;-95
2022/06/18 10:51:18;;;;;;;5.55;2.50;;;26.90;99.90;;;;;;5027565;28;20137;-93
2022/06/18 10:53:51;;;;;;;13.32;3.55;;;26.80;99.90;;;;;;5032555;28;20091;-92
2022/06/18 10:56:23;;;;;;;8.65;2.92;;;27.00;99.90;;;;;;5033513;28;20025;-92
2022/06/18 10:58:54;;;;;;;4.13;2.72;;;27.00;99.90;;;;;;5031418;28;20022;-92
2022/06/18 11:01:44;;;;;;;3.40;2.80;;;27.00;99.90;;;;;;5031950;28;20037;-92
2022/06/18 11:04:22;;;;;;;7.45;2.90;;;27.10;99.90;;;;;;5032621;28;20400;-93
2022/06/18 11:06:52;;;;;;;7.38;2.90;;;27.30;99.90;;;;;;5031906;28;20068;-93
2022/06/18 11:09:24;;;;;;;6.25;2.80;;;27.30;99.90;;;;;;5025878;28;20010;-91
2022/06/18 11:12:03;;;;;;;5.80;3.13;;;27.20;99.90;;;;;;5028464;28;20025;-92
2022/06/18 11:14:39;;;;;;;3.22;2.90;;;27.40;99.90;;;;;;5031680;28;20033;-93
2022/06/18 11:17:25;;;;;;;7.90;3.15;;;27.60;99.90;;;;;;5033180;28;20080;-92
2022/06/18 11:19:50;;;;;;;3.88;2.75;;;27.60;99.90;;;;;;5032177;28;20387;-95
2022/06/18 11:22:29;;;;;;;4.82;3.10;;;27.50;99.90;;;;;;5032935;28;20029;-91
2022/06/18 11:24:59;;;;;;;5.28;3.00;;;27.40;99.90;;;;;;5018674;28;20432;-92
2022/06/18 11:27:34;;;;;;;6.80;3.08;;;27.50;99.90;;;;;;5033087;28;20026;-94
2022/06/18 11:30:17;;;;;;;6.78;3.25;;;27.40;99.90;;;;;;5033335;28;20017;-90
2022/06/18 11:32:48;;;;;;;3.95;2.83;;;27.30;99.90;;;;;;5051706;28;20052;-91
2022/06/18 11:35:13;;;;;;;4.57;3.03;;;27.30;99.90;;;;;;5032186;28;20026;-90
2022/06/18 11:37:40;;;;;;;4.15;2.85;;;27.30;99.90;;;;;;5033005;28;20032;-89
2022/06/18 11:40:12;;;;;;;5.70;3.30;;;27.40;99.90;;;;;;5019185;28;20581;-92
2022/06/18 11:42:40;;;;;;;3.95;2.92;;;27.60;99.90;;;;;;5053084;28;20020;-91
2022/06/18 11:45:17;;;;;;;3.60;3.22;;;27.80;99.90;;;;;;5031137;28;20504;-90
2022/06/18 11:48:06;;;;;;;4.15;2.78;;;27.70;99.90;;;;;;5032530;28;20105;-89
2022/06/18 11:50:40;;;;;;;7.97;3.17;;;27.70;99.90;;;;;;5017519;28;20037;-91
2022/06/18 11:53:19;;;;;;;5.07;2.95;;;27.70;99.90;;;;;;5031157;28;20112;-89
2022/06/18 11:55:51;;;;;;;4.28;2.67;;;27.90;99.90;;;;;;5032929;28;20488;-93
2022/06/18 11:58:41;;;;;;;4.15;2.97;;;28.00;99.90;;;;;;5032707;28;20022;-90
2022/06/18 12:01:15;;;;;;;3.97;3.05;;;28.30;99.90;;;;;;5023419;28;20049;-88
2022/06/18 12:03:50;;;;;;;10.27;2.83;;;29.10;99.90;;;;;;5031927;28;20021;-92
2022/06/18 12:06:39;;;;;;;5.50;2.83;;;31.40;99.90;;;;;;5029491;28;20065;-93
2022/06/18 12:09:05;;;;;;;5.35;2.33;;;32.90;99.40;;;;;;5030295;28;20032;-91
2022/06/18 12:12:02;;;;;;;6.22;2.63;;;34.00;95.60;;;;;;5035444;28;20104;-89
2022/06/18 12:14:49;;;;;;;3.58;2.72;;;34.70;95.70;;;;;;5035900;28;20029;-88
2022/06/18 12:17:30;;;;;;;5.28;2.80;;;35.30;94.90;;;;;;5037653;28;20470;-95
2022/06/18 12:20:29;;;;;;;6.43;2.67;;;36.60;92.90;;;;;;5037562;28;20061;-92
2022/06/18 12:23:03;;;;;;;3.78;2.70;;;36.70;91.80;;;;;;5036349;28;20279;-92
2022/06/18 12:25:49;;;;;;;4.85;2.67;;;36.70;92.40;;;;;;5032743;28;20053;-92
2022/06/18 12:28:33;;;;;;;6.35;2.88;;;36.90;92.60;;;;;;5032720;28;20030;-93
2022/06/18 12:31:14;;;;;;;5.63;3.00;;;37.30;90.70;;;;;;5032755;28;20083;-92
2022/06/18 12:34:22;;;;;;;4.95;2.90;;;36.70;90.30;;;;;;5029696;28;20049;-93
2022/06/18 12:37:03;;;;;;;4.82;3.00;;;36.80;89.40;;;;;;5026405;28;20022;-91
2022/06/18 12:40:02;;;;;;;4.78;2.58;;;36.80;89.70;;;;;;5033208;28;20187;-93
2022/06/18 12:42:42;;;;;;;7.97;2.45;;;37.20;89.80;;;;;;5020260;28;20088;-90
2022/06/18 12:45:27;;;;;;;4.97;2.67;;;36.70;88.00;;;;;;5031624;28;20499;-93
2022/06/18 12:48:02;;;;;;;4.25;2.35;;;36.90;88.80;;;;;;5033870;28;20021;-92
2022/06/18 12:51:01;;;;;;;8.30;2.75;;;37.40;86.40;;;;;;5031538;28;20034;-94
2022/06/18 12:53:32;;;;;;;4.35;2.60;;;37.70;85.10;;;;;;5032052;28;20490;-87
2022/06/18 12:56:01;;;;;;;12.30;3.83;;;38.30;84.30;;;;;;5031780;28;20030;-91
2022/06/18 12:58:46;;;;;;;13.35;4.05;;;37.70;91.20;;;;;;5031012;28;20049;-89
2022/06/18 13:01:19;;;;;;;12.57;4.03;;;35.90;91.10;;;;;;5035537;28;20547;-91
2022/06/18 13:03:56;;;;;;;8.02;3.15;;;35.80;93.90;;;;;;5034306;28;20047;-94
2022/06/18 13:06:36;;;;;;;11.38;3.47;;;36.20;91.10;;;;;;5030766;28;20033;-92
2022/06/18 13:09:12;;;;;;;5.28;3.00;;;35.90;92.00;;;;;;5027628;28;20026;-94
2022/06/18 13:11:50;;;;;;;4.28;2.80;;;36.50;91.90;;;;;;5030148;28;20029;-93
2022/06/18 13:14:38;;;;;;;3.88;3.10;;;37.00;90.40;;;;;;5032797;28;20108;-92
2022/06/18 13:17:12;;;;;;;12.68;3.13;;;36.70;90.50;;;;;;5028469;28;20487;-88
2022/06/18 13:20:07;;;;;;;6.10;3.28;;;36.50;91.10;;;;;;5031000;28;20480;-91
2022/06/18 13:22:33;;;;;;;5.15;3.00;;;35.70;91.30;;;;;;5029920;28;20037;-91
2022/06/18 13:28:21;;;;;;;7.85;2.88;;;37.00;89.10;;;;;;5014724;28;20112;-91
2022/06/18 13:30:52;;;;;;;;;;;37.50;87.50;;;;;;5035803;28;20022;-92
2022/06/18 13:33:18;;;;;;;6.82;3.22;;;37.70;86.00;;;;;;5034455;28;19912;-92
2022/06/18 13:36:06;;;;;;;7.97;3.53;;;36.80;84.90;;;;;;5033321;28;20424;-95
2022/06/18 13:38:51;;;;;;;6.25;2.90;;;36.50;87.80;;;;;;5023318;28;20030;-91
2022/06/18 13:41:46;;;;;;;5.55;3.05;;;37.00;83.40;;;;;;5033969;28;20432;-92
2022/06/18 13:44:27;;;;;;;6.93;2.75;;;36.90;84.40;;;;;;5028201;28;20050;-93
2022/06/18 13:47:17;;;;;;;4.68;3.50;;;36.80;83.10;;;;;;5034013;28;20029;-93
2022/06/18 13:50:08;;;;;;;4.65;3.40;;;35.50;89.50;;;;;;5033801;28;20096;-93
2022/06/18 13:52:45;;;;;;;5.75;3.22;;;35.70;90.80;;;;;;5031147;28;20036;-89
2022/06/18 13:55:14;;;;;;;6.28;3.53;;;35.40;88.70;;;;;;5032759;28;20033;-94
2022/06/18 13:57:45;;;;;;;5.20;3.53;;;35.60;91.10;;;;;;5033333;28;20021;-89
2022/06/18 14:00:24;;;;;;;12.75;3.90;;;36.40;88.70;;;;;;5031798;28;20104;-92
2022/06/18 14:03:02;;;;;;;7.32;4.05;;;36.10;90.20;;;;;;5012770;28;20089;-93
2022/06/18 14:05:54;;;;;;;5.47;4.20;;;35.40;91.10;;;;;;5029976;28;20041;-90
2022/06/18 14:08:26;;;;;;;7.50;4.00;;;34.90;93.00;;;;;;5033713;28;20087;-89
2022/06/18 14:10:53;;;;;;;;;;;34.20;93.80;;;;;;5040047;28;20100;-94
2022/06/18 14:13:21;;;;;;;9.75;5.40;;;33.90;95.50;;;;;;5048630;28;19987;-89
2022/06/18 14:16:03;;;;;;;9.88;4.95;;;33.30;96.70;;;;;;5028871;28;20052;-94
2022/06/18 14:18:31;;;;;;;7.72;4.95;;;33.10;97.10;;;;;;5033712;28;20032;-94
2022/06/18 14:21:08;;;;;;;7.88;4.70;;;32.80;98.30;;;;;;5033564;28;20017;-92
2022/06/18 14:23:40;;;;;;;6.53;4.35;;;32.80;97.70;;;;;;5032024;28;20061;-87
2022/06/18 14:26:15;;;;;;;6.90;4.43;;;32.40;96.60;;;;;;5033126;28;20072;-93
2022/06/18 14:29:03;;;;;;;9.00;3.95;;;32.70;97.20;;;;;;5032482;28;20570;-90
2022/06/18 14:32:25;;;;;;;6.55;4.03;;;33.00;95.60;;;;;;5033197;28;20037;-87
2022/06/18 14:35:06;;;;;;;6.67;4.00;;;33.80;94.00;;;;;;5028449;28;20029;-92
2022/06/18 14:37:42;;;;;;;9.52;3.60;;;34.00;92.70;;;;;;5013710;28;20424;-94
2022/06/18 14:40:13;;;;;;;9.80;4.03;;;33.90;93.70;;;;;;5024335;28;20045;-92
2022/06/18 14:42:59;;;;;;;10.35;3.80;;;34.20;92.30;;;;;;5032452;28;20427;-95
2022/06/18 14:45:39;;;;;;;5.95;3.75;;;34.50;92.60;;;;;;5016419;28;20044;-87
2022/06/18 14:48:24;;;;;;;15.90;4.43;;;34.90;93.10;;;;;;5033602;28;20083;-94
2022/06/18 14:51:27;;;;;;;10.82;4.15;;;34.60;95.40;;;;;;5030146;28;20029;-91
2022/06/18 14:54:17;;;;;;;10.20;4.20;;;34.90;94.30;;;;;;5033297;28;20022;-94
2022/06/18 14:56:46;;;;;;;12.38;4.03;;;35.20;93.70;;;;;;5032402;28;20018;-94
2022/06/18 14:59:34;;;;;;;7.32;3.95;;;34.50;95.30;;;;;;5030573;28;20021;-91
2022/06/18 15:02:02;;;;;;;8.10;3.72;;;33.90;94.90;;;;;;5029355;28;20414;-91
2022/06/18 15:04:43;;;;;;;4.60;4.05;;;34.00;96.40;;;;;;5029860;28;20100;-93
2022/06/18 15:07:09;;;;;;;8.13;4.25;;;33.20;97.40;;;;;;5031829;28;20033;-92
2022/06/18 15:09:38;;;;;;;9.40;4.45;;;33.20;98.10;;;;;;5030759;28;20026;-90
2022/06/18 15:12:08;;;;;;;8.18;4.10;;;32.90;97.40;;;;;;5032192;28;20029;-91
2022/06/18 15:14:52;;;;;;;15.02;4.43;;;32.70;96.40;;;;;;5030174;28;20025;-87
2022/06/18 15:20:10;;;;;;;7.93;3.92;;;31.60;98.20;;;;;;5031323;28;20013;-92
2022/06/18 15:25:24;;;;;;;8.65;4.07;;;32.70;94.40;;;;;;5030292;28;20088;-94
2022/06/18 15:28:00;;;;;;;9.80;4.20;;;32.60;95.40;;;;;;5012370;28;20043;-92
2022/06/18 15:30:37;;;;;;;5.82;3.63;;;32.30;95.50;;;;;;5024754;28;20423;-91
2022/06/18 15:33:11;;;;;;;7.07;3.92;;;32.50;95.30;;;;;;5031347;28;20033;-90
2022/06/18 15:35:48;;;;;;;9.50;3.92;;;32.60;95.00;;;;;;5030948;28;20154;-92
2022/06/18 15:38:27;;;;;;;6.10;3.95;;;32.30;94.50;;;;;;5031195;28;20523;-93
2022/06/18 15:41:08;;;;;;;7.82;3.80;;;32.50;94.60;;;;;;5031919;28;20062;-93
2022/06/18 15:43:44;;;;;;;6.10;3.78;;;33.20;91.90;;;;;;5029571;28;20025;-93
2022/06/18 15:46:19;;;;;;;10.07;3.72;;;33.70;92.20;;;;;;5032544;28;20072;-91
2022/06/18 15:49:01;;;;;;;8.63;3.97;;;34.50;92.00;;;;;;5035521;28;20024;-95
2022/06/18 15:51:31;;;;;;;7.05;4.03;;;35.10;91.50;;;;;;5033285;28;20037;-93
2022/06/18 15:54:01;;;;;;;10.48;4.10;;;35.50;91.50;;;;;;5032724;28;20025;-94
2022/06/18 15:56:32;;;;;;;7.30;4.03;;;35.60;91.60;;;;;;5035210;28;20025;-94
2022/06/18 15:58:58;;;;;;;6.97;3.78;;;35.40;91.60;;;;;;5027954;28;20026;-91
2022/06/18 16:01:24;;;;;;;5.00;4.05;;;34.40;91.90;;;;;;5035927;28;20033;-92
2022/06/18 16:03:51;;;;;;;10.90;4.40;;;34.10;92.60;;;;;;5033768;28;20105;-95
2022/06/18 16:06:19;;;;;;;27.50;5.28;;;34.50;92.20;;;;;;5035635;28;20618;-92
2022/06/18 16:09:04;;;;;;;6.85;3.88;;;34.40;92.30;;;;;;5034942;28;20025;-92
2022/06/18 16:11:33;;;;;;;8.00;3.92;;;34.20;92.90;;;;;;5043806;28;20424;-93
2022/06/18 16:14:11;;;;;;;6.35;3.97;;;34.90;92.00;;;;;;5045352;28;20383;-92
2022/06/18 16:16:45;;;;;;;5.22;3.53;;;35.50;92.10;;;;;;5017148;28;20030;-93
2022/06/18 16:19:12;;;;;;;5.70;3.75;;;35.30;91.70;;;;;;5025751;28;20083;-93
2022/06/18 16:21:49;;;;;;;7.70;3.95;;;34.80;92.30;;;;;;5034705;28;20120;-92
2022/06/18 16:24:21;;;;;;;9.18;3.97;;;34.40;92.00;;;;;;5032253;28;20006;-93
2022/06/18 16:26:59;;;;;;;4.97;3.70;;;34.40;92.40;;;;;;5030437;28;20396;-94
2022/06/18 16:29:27;;;;;;;5.40;3.88;;;34.60;91.80;;;;;;5036266;28;20046;-93
2022/06/18 16:31:53;;;;;;;8.27;3.90;;;34.30;91.70;;;;;;5035793;28;20423;-87
2022/06/18 16:34:47;;;;;;;8.38;4.68;;;33.60;91.80;;;;;;5033130;28;20539;-83
2022/06/18 16:37:29;;;;;;;5.95;3.85;;;32.80;91.60;;;;;;5033872;28;20064;-86
2022/06/18 16:40:01;;;;;;;;;;;31.90;93.00;;;;;;5033516;28;20025;-85
2022/06/18 16:42:30;;;;;;;8.45;4.20;;;31.50;93.10;;;;;;5029732;28;19916;-85
2022/06/18 16:45:18;;;;;;;5.25;3.58;;;31.50;93.10;;;;;;5032713;28;20033;-84
2022/06/18 16:47:48;;;;;;;9.18;4.07;;;31.40;92.90;;;;;;5033168;28;20087;-84
2022/06/18 16:50:20;;;;;;;7.97;3.92;;;31.30;92.90;;;;;;5032770;28;20029;-86
2022/06/18 16:52:47;;;;;;;9.03;3.83;;;31.00;93.60;;;;;;5032759;28;20099;-88
2022/06/18 16:55:20;;;;;;;7.68;4.13;;;31.20;94.00;;;;;;5031537;28;20033;-88
2022/06/18 16:57:45;;;;;;;6.00;3.97;;;31.40;93.20;;;;;;5034146;28;20499;-94
2022/06/18 17:00:24;;;;;;;14.93;4.40;;;31.30;93.00;;;;;;5021983;28;20087;-94
2022/06/18 17:02:50;;;;;;;7.43;4.20;;;31.20;93.30;;;;;;5035681;28;20026;-93
2022/06/18 17:05:16;;;;;;;6.05;3.70;;;31.20;92.70;;;;;;5034485;28;20506;-94
2022/06/18 17:07:43;;;;;;;8.50;4.35;;;31.00;93.20;;;;;;5035566;28;20076;-93
2022/06/18 17:10:19;;;;;;;6.07;3.97;;;30.80;93.20;;;;;;5033504;28;20099;-94
2022/06/18 17:12:45;;;;;;;9.82;4.45;;;30.80;93.50;;;;;;5034843;28;20105;-89
2022/06/18 17:15:11;;;;;;;9.68;4.53;;;30.80;95.60;;;;;;5034001;28;20080;-93
2022/06/18 17:17:41;;;;;;;12.90;4.68;;;30.50;97.20;;;;;;5035231;28;20040;-95
2022/06/18 17:20:07;;;;;;;7.78;3.85;;;29.90;97.40;;;;;;5035172;28;20030;-95
2022/06/18 17:22:33;;;;;;;13.25;5.20;;;29.70;96.30;;;;;;5036587;28;20024;-92
2022/06/18 17:33:13;;;;;;;5.43;4.20;;;29.10;98.70;;;;;;5032841;28;20079;-86
2022/06/18 17:35:46;;;;;;;12.55;4.57;;;28.90;99.60;;;;;;5030966;28;20021;-86
2022/06/18 17:38:14;;;;;;;17.23;5.30;;;28.60;99.90;;;;;;5031079;28;20033;-86
2022/06/18 17:40:40;;;;;;;14.25;4.72;;;28.60;99.90;;;;;;5031633;28;20141;-86
2022/06/18 17:43:09;;;;;;;10.15;4.07;;;28.50;99.90;;;;;;5032362;28;20086;-86
2022/06/18 17:45:35;;;;;;;26.13;6.00;;;28.40;99.90;;;;;;5029822;28;20044;-86
2022/06/18 17:48:01;;;;;;;13.50;4.88;;;28.30;99.90;;;;;;5032104;28;20030;-86
2022/06/18 17:50:26;;;;;;;9.93;4.30;;;28.30;99.90;;;;;;5030521;28;20029;-85
2022/06/18 17:52:52;;;;;;;14.40;4.75;;;28.30;99.90;;;;;;5030918;28;20056;-87
2022/06/18 17:55:19;;;;;;;27.35;10.70;;;28.10;99.90;;;;;;5029775;28;20029;-89
2022/06/18 17:57:45;;;;;;;10.73;5.22;;;28.00;99.90;;;;;;5030716;28;20461;-87
2022/06/18 18:00:13;;;;;;;13.80;5.47;;;28.00;99.90;;;;;;5029892;28;20033;-87
2022/06/18 18:02:39;;;;;;;10.57;5.40;;;28.00;99.90;;;;;;5029524;28;20480;-86
2022/06/18 18:05:06;;;;;;;7.72;3.90;;;27.80;99.90;;;;;;5031155;28;20037;-86
2022/06/18 18:07:32;;;;;;;8.48;4.50;;;27.70;99.90;;;;;;5031022;28;20124;-85
2022/06/18 18:09:58;;;;;;;7.68;4.78;;;27.50;99.90;;;;;;5021701;28;20124;-86
2022/06/18 18:12:26;;;;;;;6.97;5.00;;;27.40;99.90;;;;;;5031037;28;20445;-86
2022/06/18 18:15:07;;;;;;;10.35;4.55;;;27.30;99.90;;;;;;5030921;28;20405;-87
2022/06/18 18:17:34;;;;;;;9.95;4.53;;;27.30;99.90;;;;;;5030273;28;20029;-87
2022/06/18 18:20:00;;;;;;;13.88;5.43;;;27.40;99.90;;;;;;5029996;28;20034;-86
2022/06/18 18:22:25;;;;;;;12.27;5.65;;;27.30;99.90;;;;;;5031916;28;20087;-86
2022/06/18 18:24:52;;;;;;;12.05;5.20;;;27.20;99.90;;;;;;5030762;28;20042;-86
2022/06/18 18:27:22;;;;;;;12.18;4.82;;;27.10;99.90;;;;;;5030675;28;20127;-86
2022/06/18 18:29:49;;;;;;;8.85;4.88;;;27.00;99.90;;;;;;5030563;28;20033;-85
2022/06/18 18:32:16;;;;;;;13.43;5.50;;;27.00;99.90;;;;;;5030919;28;20380;-86
2022/06/18 18:34:42;;;;;;;11.52;5.90;;;26.80;99.90;;;;;;5030677;28;20064;-86
2022/06/18 18:37:08;;;;;;;13.00;5.07;;;26.70;99.90;;;;;;5031630;28;20445;-86
2022/06/18 18:39:34;;;;;;;11.30;4.70;;;26.50;99.90;;;;;;5030574;28;20059;-85
2022/06/18 18:42:02;;;;;;;11.05;5.07;;;26.40;99.90;;;;;;5031898;28;20024;-86
2022/06/18 18:44:28;;;;;;;6.47;4.30;;;26.30;99.90;;;;;;5030395;28;20041;-85
2022/06/18 18:46:54;;;;;;;10.30;4.63;;;26.20;99.90;;;;;;5031497;28;20040;-86
2022/06/18 18:49:20;;;;;;;10.35;5.10;;;26.10;99.90;;;;;;5030507;28;20100;-86
2022/06/18 18:51:45;;;;;;;11.55;5.32;;;26.00;99.90;;;;;;5031495;28;20453;-87
2022/06/18 18:54:11;;;;;;;11.38;5.28;;;26.00;99.90;;;;;;5030525;28;20079;-85
2022/06/18 18:56:37;;;;;;;7.63;5.00;;;26.00;99.90;;;;;;5031332;28;20468;-87
2022/06/18 18:59:06;;;;;;;9.05;5.07;;;25.90;99.90;;;;;;5030268;28;20480;-87
2022/06/18 19:01:33;;;;;;;5.03;4.53;;;25.90;99.90;;;;;;5030307;28;20079;-87
2022/06/18 19:03:59;;;;;;;6.82;4.60;;;25.80;99.90;;;;;;5029346;28;20022;-86
2022/06/18 19:06:25;;;;;;;10.82;4.88;;;25.70;99.90;;;;;;5029839;28;20396;-85
2022/06/18 19:08:51;;;;;;;11.13;4.97;;;25.70;99.90;;;;;;5028441;28;20026;-90
2022/06/18 19:11:17;;;;;;;11.18;6.13;;;25.60;99.90;;;;;;5034747;28;20091;-87
2022/06/18 19:13:44;;;;;;;9.73;5.07;;;25.60;99.90;;;;;;5028546;28;20029;-85
2022/06/18 19:16:13;;;;;;;6.93;4.90;;;25.50;99.90;;;;;;5028221;28;20025;-86
2022/06/18 19:18:39;;;;;;;11.23;5.57;;;25.50;99.90;;;;;;5026522;28;20018;-85
2022/06/18 19:21:17;;;;;;;14.27;6.15;;;25.50;99.90;;;;;;5029560;28;20404;-88
2022/06/18 19:23:43;;;;;;;9.65;5.43;;;25.40;99.90;;;;;;5029985;28;20022;-88
2022/06/18 19:26:09;;;;;;;7.57;5.75;;;25.30;99.90;;;;;;5029485;28;20516;-86
2022/06/18 19:28:43;;;;;;;9.82;5.22;;;25.30;99.90;;;;;;5029016;28;20021;-86
2022/06/18 19:31:09;;;;;;;9.90;5.32;;;25.20;99.90;;;;;;5031352;28;20029;-86
2022/06/18 19:33:35;;;;;;;9.02;4.97;;;25.10;99.90;;;;;;5029059;28;20022;-87
2022/06/18 19:36:03;;;;;;;11.27;5.22;;;25.00;99.90;;;;;;5036372;28;20030;-94
2022/06/18 19:38:31;;;;;;;7.57;4.88;;;24.90;99.90;;;;;;5032278;28;20097;-96
2022/06/18 19:40:57;;;;;;;6.30;4.68;;;24.90;99.90;;;;;;5034460;28;20065;-94
2022/06/18 19:43:24;;;;;;;8.90;4.25;;;24.80;99.90;;;;;;5033550;28;20048;-92
2022/06/18 19:45:56;;;;;;;6.50;4.47;;;24.70;99.90;;;;;;5016891;28;20507;-95
2022/06/18 19:48:22;;;;;;;9.15;5.15;;;24.70;99.90;;;;;;5017470;28;20018;-93
2022/06/18 19:50:49;;;;;;;8.05;4.97;;;24.70;99.90;;;;;;5031477;28;20124;-92
2022/06/18 19:53:16;;;;;;;5.55;5.05;;;24.70;99.90;;;;;;5018154;28;20423;-93
2022/06/18 19:55:42;;;;;;;7.10;5.25;;;24.70;99.90;;;;;;5014663;28;20028;-94
2022/06/18 19:58:07;;;;;;;9.38;4.20;;;24.70;99.90;;;;;;5014204;28;20112;-93
2022/06/18 20:00:34;;;;;;;8.00;4.60;;;24.60;99.90;;;;;;5017036;28;20079;-91
2022/06/18 20:03:02;;;;;;;7.03;5.10;;;24.60;99.90;;;;;;5039305;28;20005;-94
2022/06/18 20:05:28;;;;;;;9.35;5.07;;;24.60;99.90;;;;;;5031875;28;20037;-94
2022/06/18 20:07:56;;;;;;;7.55;4.93;;;24.50;99.90;;;;;;5036504;28;20464;-93
2022/06/18 20:10:22;;;;;;;6.38;4.97;;;24.40;99.90;;;;;;5033248;28;20037;-94
2022/06/18 20:12:51;;;;;;;6.68;4.63;;;24.30;99.90;;;;;;5034056;28;20607;-92
2022/06/18 20:15:17;;;;;;;10.20;4.93;;;24.30;99.90;;;;;;5037626;28;20021;-93
2022/06/18 20:17:43;;;;;;;5.28;4.78;;;24.30;99.90;;;;;;5035355;28;20017;-90
2022/06/18 20:20:10;;;;;;;9.43;5.28;;;24.20;99.90;;;;;;5031313;28;20427;-92
2022/06/18 20:22:36;;;;;;;16.35;6.63;;;24.20;99.90;;;;;;5038268;28;20026;-93
2022/06/18 20:25:03;;;;;;;30.15;7.82;;;24.10;99.90;;;;;;5025073;28;20042;-93
2022/06/18 20:27:31;;;;;;;40.88;9.45;;;24.00;99.90;;;;;;5032695;28;20083;-84
2022/06/18 20:29:57;;;;;;;49.40;12.68;;;24.00;99.90;;;;;;5033777;28;20122;-92
2022/06/18 20:32:23;;;;;;;74.38;13.45;;;23.90;99.90;;;;;;5032949;28;20021;-88
2022/06/18 20:34:49;;;;;;;37.13;10.10;;;23.90;99.90;;;;;;5037791;28;20404;-96
2022/06/18 20:37:16;;;;;;;26.10;8.40;;;23.80;99.90;;;;;;5038420;28;20036;-92
2022/06/18 20:39:44;;;;;;;28.65;8.10;;;23.70;99.90;;;;;;5033372;28;20491;-95
2022/06/18 20:42:13;;;;;;;17.80;7.05;;;23.70;99.90;;;;;;5036536;28;20629;-94
2022/06/18 20:44:41;;;;;;;11.65;6.65;;;23.60;99.90;;;;;;5033440;28;20025;-92
2022/06/18 20:47:07;;;;;;;10.82;6.30;;;23.60;99.90;;;;;;5035206;28;20026;-93
2022/06/18 20:49:35;;;;;;;9.05;6.60;;;23.50;99.90;;;;;;5034769;28;20017;-92
2022/06/18 20:52:06;;;;;;;8.23;5.78;;;23.50;99.90;;;;;;5035610;28;20527;-93
2022/06/18 20:57:17;;;;;;;13.65;5.95;;;23.40;99.90;;;;;;5036777;28;20079;-87
2022/06/18 20:59:52;;;;;;;6.53;5.55;;;23.40;99.90;;;;;;5034035;28;20124;-91
2022/06/18 21:02:18;;;;;;;9.48;6.15;;;23.40;99.90;;;;;;5034515;28;20632;-91
2022/06/18 21:04:44;;;;;;;6.82;6.13;;;23.40;99.90;;;;;;5032710;28;20064;-87
2022/06/18 21:07:09;;;;;;;12.43;6.35;;;23.30;99.90;;;;;;5033469;28;20057;-88